Time;durP1;ratioP1;P1;durP2;ratioP2;P2;SDS_P1;SDS_P2;PMS_P1;PMS_P2;Temp;Humidity;BMP_temperature;BMP_pressure;BME280_temperature;BME280_humidity;BME280_pressure;Samples;Min_cycle;Max_cycle;Signal;HPM_P1;HPM_P2
2022/04/22 00:02:15;;;;;;;4.13;1.45;;;;;;;7.92;79.17;101980.94;4900191;29;20028;-78
2022/04/22 00:04:41;;;;;;;3.30;1.40;;;;;;;8.05;79.22;102004.69;4899645;29;20050;-77
2022/04/22 00:07:07;;;;;;;1.95;1.20;;;;;;;8.03;79.38;102003.13;4899813;29;20033;-78
2022/04/22 00:09:33;;;;;;;3.80;1.30;;;;;;;8.02;79.24;102004.13;4884365;29;20024;-78
2022/04/22 00:11:59;;;;;;;4.90;1.13;;;;;;;7.98;81.09;102012.50;4899845;29;20506;-77
2022/04/22 00:14:25;;;;;;;4.53;1.60;;;;;;;7.99;80.58;102005.28;4900621;29;20043;-78
2022/04/22 00:16:50;;;;;;;2.00;1.27;;;;;;;7.95;80.36;102004.75;4899139;29;20028;-77
2022/04/22 00:19:16;;;;;;;2.67;1.58;;;;;;;7.75;80.73;101973.72;4901149;29;20029;-78
2022/04/22 00:21:42;;;;;;;2.47;1.30;;;;;;;7.78;79.77;101986.78;4902087;29;20028;-78
2022/04/22 00:24:07;;;;;;;4.25;1.20;;;;;;;7.89;80.09;102004.50;4904292;29;20031;-78
2022/04/22 00:26:33;;;;;;;2.15;1.38;;;;;;;7.85;80.51;102003.97;4883911;29;20033;-78
2022/04/22 00:28:58;;;;;;;3.28;1.30;;;;;;;7.77;81.03;101988.63;4897331;29;20024;-78
2022/04/22 00:31:24;;;;;;;2.10;1.20;;;;;;;7.74;80.83;101982.75;4901986;29;20032;-78
2022/04/22 00:33:49;;;;;;;2.63;1.30;;;;;;;7.77;81.04;101995.84;4900430;29;20033;-77
2022/04/22 00:36:14;;;;;;;2.25;1.30;;;;;;;7.72;81.29;101998.16;4899166;29;20036;-78
2022/04/22 00:38:40;;;;;;;2.85;1.30;;;;;;;7.50;81.76;101959.22;4883846;29;20447;-78
2022/04/22 00:41:06;;;;;;;1.63;1.27;;;;;;;7.68;81.34;101992.25;4898294;29;20047;-78
2022/04/22 00:43:44;;;;;;;2.30;1.40;;;;;;;7.60;81.83;101984.09;4899736;29;20046;-78
2022/04/22 00:46:10;;;;;;;1.27;1.10;;;;;;;7.56;82.36;101982.72;4897597;29;20025;-78
2022/04/22 00:48:35;;;;;;;3.63;1.58;;;;;;;7.54;82.19;101985.53;4868257;29;20044;-78
2022/04/22 00:51:00;;;;;;;3.05;1.38;;;;;;;7.56;82.12;101995.28;4899373;29;20106;-78
2022/04/22 00:53:26;;;;;;;3.65;1.48;;;;;;;7.48;81.90;101994.19;4898929;29;20057;-78
2022/04/22 00:55:53;;;;;;;4.32;1.40;;;;;;;7.33;82.98;101984.97;4900020;29;20482;-78
2022/04/22 00:58:18;;;;;;;2.72;1.38;;;;;;;7.43;83.64;101993.78;4900852;29;20028;-77
2022/04/22 01:00:44;;;;;;;5.18;1.27;;;;;;;7.23;83.45;101962.75;4889211;29;20044;-78
2022/04/22 01:03:10;;;;;;;6.45;1.55;;;;;;;7.37;83.55;101985.50;4905411;29;20395;-78
2022/04/22 01:11:04;;;;;;;3.50;1.30;;;;;;;7.31;83.63;101989.63;4900094;29;20072;-78
2022/04/22 01:13:30;;;;;;;3.40;1.27;;;;;;;7.26;83.94;101987.41;4899438;29;20461;-77
2022/04/22 01:15:56;;;;;;;2.40;1.17;;;;;;;7.23;83.71;101986.84;4883852;29;20036;-78
2022/04/22 01:18:23;;;;;;;3.65;1.40;;;;;;;7.00;84.02;101959.63;4897927;29;20051;-77
2022/04/22 01:20:48;;;;;;;4.50;1.55;;;;;;;7.12;84.27;101982.53;4883016;29;20059;-78
2022/04/22 01:23:14;;;;;;;2.33;1.25;;;;;;;7.07;84.48;101982.97;4898764;29;20451;-77
2022/04/22 01:25:40;;;;;;;1.92;1.40;;;;;;;7.09;84.70;101973.97;4867971;29;20033;-78
2022/04/22 01:28:06;;;;;;;2.22;1.58;;;;;;;6.99;85.17;101968.66;4899044;29;20039;-78
2022/04/22 01:30:32;;;;;;;3.83;1.33;;;;;;;6.97;86.61;101970.63;4900113;29;20032;-78
2022/04/22 01:32:57;;;;;;;3.10;1.30;;;;;;;6.91;86.17;101965.84;4898096;29;20044;-78
2022/04/22 01:35:24;;;;;;;1.98;1.35;;;;;;;6.92;86.02;101970.19;4883022;29;20060;-78
2022/04/22 01:37:50;;;;;;;2.75;2.03;;;;;;;6.79;86.74;101967.88;4898307;29;20477;-78
2022/04/22 01:40:16;;;;;;;2.45;1.45;;;;;;;6.71;88.62;101971.25;4899385;29;20044;-78
2022/04/22 01:42:42;;;;;;;3.83;1.50;;;;;;;6.45;90.44;101938.94;4914178;29;20099;-77
2022/04/22 01:45:12;;;;;;;2.13;1.50;;;;;;;6.67;89.15;101964.53;4900470;29;20036;-78
2022/04/22 01:47:38;;;;;;;2.03;1.20;;;;;;;6.59;88.51;101951.88;4899598;29;20054;-78
2022/04/22 01:50:04;;;;;;;2.30;1.20;;;;;;;6.63;88.45;101964.97;4897620;29;20048;-77
2022/04/22 01:52:29;;;;;;;3.90;1.63;;;;;;;6.62;88.73;101960.59;4896281;29;20056;-77
2022/04/22 01:54:56;;;;;;;2.03;1.50;;;;;;;6.49;90.67;101943.03;4897748;29;20071;-78
2022/04/22 01:57:22;;;;;;;1.98;1.30;;;;;;;6.50;90.52;101955.41;4897889;29;20025;-78
2022/04/22 01:59:48;;;;;;;1.77;1.35;;;;;;;6.59;90.69;101967.94;4883416;29;20447;-77
2022/04/22 02:02:15;;;;;;;2.05;1.33;;;;;;;6.58;89.97;101962.72;4897744;29;20029;-78
2022/04/22 02:04:40;;;;;;;2.38;1.38;;;;;;;6.56;89.60;101957.53;4897631;29;20025;-77
2022/04/22 02:07:06;;;;;;;6.05;1.65;;;;;;;6.55;91.30;101957.66;4897432;29;20463;-78
2022/04/22 02:09:32;;;;;;;4.43;1.70;;;;;;;6.33;91.01;101924.94;4897391;29;20518;-78
2022/04/22 02:11:58;;;;;;;2.10;1.35;;;;;;;6.37;90.42;101930.81;4902249;29;20505;-77
2022/04/22 02:14:25;;;;;;;3.05;1.40;;;;;;;6.47;91.64;101958.38;4901827;29;20029;-78
2022/04/22 02:16:52;;;;;;;2.97;1.58;;;;;;;6.43;94.00;101958.81;4900595;29;20039;-78
2022/04/22 02:19:18;;;;;;;2.88;1.50;;;;;;;6.41;93.53;101958.94;4909996;29;20032;-78
2022/04/22 02:21:43;;;;;;;1.83;1.30;;;;;;;6.36;93.75;101953.22;4917399;29;20035;-77
2022/04/22 02:24:09;;;;;;;1.98;1.48;;;;;;;6.22;95.44;101935.75;4904274;29;20092;-78
2022/04/22 02:28:31;;;;;;;2.05;1.58;;;;;;;6.20;97.66;101947.59;4882873;29;20040;-78
2022/04/22 02:29:19;;;;;;;;;;;;;;;6.27;99.17;101954.06;4898040;29;20067;-78
2022/04/22 02:31:45;;;;;;;4.03;1.40;;;;;;;6.19;95.46;101937.88;4898392;29;19912;-77
2022/04/22 02:34:10;;;;;;;1.67;1.40;;;;;;;6.22;96.72;101953.63;4879445;29;20436;-77
2022/04/22 02:36:39;;;;;;;3.17;1.60;;;;;;;6.19;97.06;101957.44;4895305;29;20420;-78
2022/04/22 02:39:05;;;;;;;2.83;1.48;;;;;;;6.19;97.04;101945.88;4905178;29;20056;-78
2022/04/22 02:47:06;;;;;;;1.85;1.30;;;;;;;6.03;100.00;101941.16;4881430;29;20111;-77
2022/04/22 02:49:31;;;;;;;5.20;1.50;;;;;;;6.08;100.00;101950.41;4864825;29;20428;-78
2022/04/22 02:51:56;;;;;;;4.93;1.48;;;;;;;6.08;100.00;101944.22;4897223;29;20467;-78
2022/04/22 02:54:23;;;;;;;2.70;1.48;;;;;;;6.12;100.00;101940.28;4898319;29;20028;-77
2022/04/22 02:56:50;;;;;;;3.08;1.75;;;;;;;6.10;100.00;101940.44;4894997;29;20055;-77
2022/04/22 02:59:17;;;;;;;2.45;1.35;;;;;;;6.09;100.00;101935.22;4878793;29;20032;-77
2022/04/22 03:01:43;;;;;;;2.50;1.30;;;;;;;6.17;100.00;101943.38;4896228;29;20063;-77
2022/04/22 03:04:09;;;;;;;3.72;1.55;;;;;;;6.22;100.00;101940.25;4896620;29;20447;-77
2022/04/22 03:06:35;;;;;;;2.42;1.75;;;;;;;6.24;100.00;101936.47;4895690;29;20452;-78
2022/04/22 03:09:00;;;;;;;1.58;1.40;;;;;;;6.07;100.00;101916.66;4898520;29;20059;-77
2022/04/22 03:11:25;;;;;;;3.20;1.60;;;;;;;6.21;100.00;101935.91;4880235;29;20128;-78
2022/04/22 03:13:52;;;;;;;2.75;1.42;;;;;;;6.19;100.00;101932.53;4898038;29;20104;-77
2022/04/22 03:16:24;;;;;;;4.05;1.63;;;;;;;6.12;100.00;101921.56;4913411;29;20111;-77
2022/04/22 03:18:49;;;;;;;2.67;1.48;;;;;;;6.00;100.00;101904.03;4900820;29;20032;-77
2022/04/22 03:21:15;;;;;;;2.17;1.52;;;;;;;6.11;100.00;101930.56;4895721;29;20047;-78
2022/04/22 03:23:40;;;;;;;3.00;1.50;;;;;;;6.09;100.00;101935.22;4900201;29;20069;-77
2022/04/22 03:26:06;;;;;;;1.90;1.40;;;;;;;6.04;100.00;101926.78;4903441;29;20039;-77
2022/04/22 03:28:32;;;;;;;4.13;1.52;;;;;;;5.91;100.00;101908.34;4901170;29;20048;-78
2022/04/22 03:30:57;;;;;;;2.47;1.30;;;;;;;6.06;100.00;101930.16;4902028;29;20033;-78
2022/04/22 03:33:23;;;;;;;5.22;1.48;;;;;;;5.90;100.00;101914.69;4871005;29;20147;-78
2022/04/22 03:35:50;;;;;;;3.70;1.95;;;;;;;5.98;100.00;101938.88;4901340;29;20133;-77
2022/04/22 03:38:19;;;;;;;2.03;1.50;;;;;;;5.93;100.00;101934.94;4899676;29;20025;-77
2022/04/22 03:40:49;;;;;;;3.25;1.70;;;;;;;5.87;100.00;101944.34;4900658;29;20024;-77
2022/04/22 03:43:15;;;;;;;1.77;1.27;;;;;;;5.81;100.00;101940.41;4898592;29;20043;-78
2022/04/22 03:45:41;;;;;;;5.28;1.70;;;;;;;5.81;100.00;101945.75;4916081;29;20036;-78
2022/04/22 03:48:10;;;;;;;2.40;1.60;;;;;;;5.84;100.00;101940.13;4883096;29;20099;-78
2022/04/22 03:50:37;;;;;;;1.85;1.55;;;;;;;5.75;100.00;101918.75;4900113;29;20028;-78
2022/04/22 03:53:03;;;;;;;1.95;1.50;;;;;;;5.94;100.00;101942.00;4897047;29;20041;-77
2022/04/22 03:55:29;;;;;;;3.08;1.40;;;;;;;5.98;100.00;101941.56;4901462;29;20091;-77
2022/04/22 04:01:00;;;;;;;5.28;1.60;;;;;;;5.98;100.00;101932.69;4900766;29;20120;-77
2022/04/22 04:03:26;;;;;;;2.00;1.38;;;;;;;5.81;100.00;101897.66;4899225;29;20084;-78
2022/04/22 04:05:52;;;;;;;2.58;1.50;;;;;;;6.14;100.00;101940.16;4882176;29;20028;-78
2022/04/22 04:08:19;;;;;;;2.28;1.58;;;;;;;6.78;100.00;101945.63;4883192;29;20131;-78
2022/04/22 04:16:14;;;;;;;2.97;1.55;;;;;;;8.75;81.73;101956.47;4900059;29;20076;-78
2022/04/22 04:18:40;;;;;;;3.33;1.45;;;;;;;9.23;80.01;101946.09;4899214;29;20033;-79
2022/04/22 04:23:52;;;;;;;1.75;1.30;;;;;;;10.06;75.77;101913.81;4898549;29;20100;-78
2022/04/22 04:26:19;;;;;;;6.13;1.35;;;;;;;10.20;74.66;101888.97;4902450;29;20053;-79
2022/04/22 04:28:47;;;;;;;3.75;1.52;;;;;;;10.66;73.92;101936.81;4898221;29;20028;-78
2022/04/22 04:31:13;;;;;;;1.90;1.20;;;;;;;10.31;74.30;101942.44;4882715;29;20115;-78
2022/04/22 04:33:39;;;;;;;3.08;1.30;;;;;;;10.24;74.67;101946.78;4897944;29;20040;-78
2022/04/22 04:36:06;;;;;;;2.65;1.20;;;;;;;10.56;73.42;101948.63;4917106;29;20108;-79
2022/04/22 04:38:32;;;;;;;1.98;1.33;;;;;;;10.66;72.64;101951.13;4884206;29;20044;-79
2022/04/22 04:40:59;;;;;;;1.95;1.52;;;;;;;10.56;73.51;101948.63;4900182;29;20025;-79
2022/04/22 04:43:24;;;;;;;2.85;1.52;;;;;;;10.67;72.63;101947.44;4896758;29;20059;-78
2022/04/22 04:45:50;;;;;;;3.20;1.52;;;;;;;10.62;72.47;101944.41;4895525;29;20033;-78
2022/04/22 04:48:17;;;;;;;4.95;1.95;;;;;;;10.52;73.71;101933.81;4897465;29;20036;-78
2022/04/22 04:50:43;;;;;;;6.00;1.50;;;;;;;10.87;71.74;101941.66;4913802;29;20028;-78
2022/04/22 04:53:12;;;;;;;3.40;1.50;;;;;;;10.99;71.21;101918.69;4894966;29;20119;-79
2022/04/22 04:55:39;;;;;;;4.18;1.40;;;;;;;11.31;69.55;101938.44;4894916;29;20059;-77
2022/04/22 04:58:04;;;;;;;3.20;1.45;;;;;;;11.13;70.42;101938.69;4880197;29;20767;-79
2022/04/22 05:00:30;;;;;;;2.72;1.30;;;;;;;11.27;69.25;101937.97;4895037;29;20040;-78
2022/04/22 05:02:56;;;;;;;5.03;1.38;;;;;;;11.46;67.86;101920.50;4882846;29;20092;-78
2022/04/22 05:05:22;;;;;;;3.58;1.50;;;;;;;11.49;67.98;101920.16;4897893;29;20040;-78
2022/04/22 05:07:50;;;;;;;2.53;1.50;;;;;;;11.66;66.81;101907.41;4896873;29;20025;-78
2022/04/22 05:10:18;;;;;;;1.70;1.25;;;;;;;11.88;66.21;101936.25;4896178;29;20056;-78
2022/04/22 05:12:47;;;;;;;2.00;1.15;;;;;;;11.53;66.67;101938.47;4894104;29;20451;-78
2022/04/22 05:15:13;;;;;;;1.30;1.13;;;;;;;11.60;66.05;101919.75;4895450;29;20096;-78
2022/04/22 05:17:40;;;;;;;1.90;1.50;;;;;;;10.90;68.46;101919.78;4896623;29;20522;-77
2022/04/22 05:20:06;;;;;;;1.50;1.10;;;;;;;9.40;75.59;101912.91;4894553;29;20099;-78
2022/04/22 05:22:32;;;;;;;1.52;1.20;;;;;;;8.72;79.54;101921.06;4897317;29;20048;-78
2022/04/22 05:24:57;;;;;;;3.33;1.35;;;;;;;8.58;81.39;101935.91;4882041;29;20052;-77
2022/04/22 05:27:22;;;;;;;1.80;1.40;;;;;;;8.26;84.17;101928.44;4881985;29;20032;-77
2022/04/22 05:32:37;;;;;;;2.30;1.30;;;;;;;8.24;85.66;101948.22;4897408;29;20071;-77
2022/04/22 05:35:08;;;;;;;4.20;1.40;;;;;;;8.10;85.89;101927.28;4897252;29;20473;-77
2022/04/22 05:37:49;;;;;;;2.50;1.52;;;;;;;8.27;86.21;101938.16;4897872;29;20028;-77
2022/04/22 05:40:17;;;;;;;2.22;1.40;;;;;;;8.37;86.08;101952.31;4896442;29;20031;-77
2022/04/22 05:42:42;;;;;;;2.65;1.20;;;;;;;8.33;85.89;101942.91;4885994;29;20431;-77
2022/04/22 05:45:09;;;;;;;1.98;1.30;;;;;;;8.44;84.97;101929.25;4895726;29;20029;-77
2022/04/22 05:47:36;;;;;;;2.65;1.50;;;;;;;8.40;85.59;101928.72;4908600;29;20041;-77
2022/04/22 05:50:04;;;;;;;1.83;1.30;;;;;;;8.42;85.17;101942.84;4881362;29;20511;-77
2022/04/22 05:52:31;;;;;;;1.45;1.20;;;;;;;8.58;85.16;101933.22;4893032;29;20033;-77
2022/04/22 05:54:58;;;;;;;1.48;1.20;;;;;;;8.73;84.33;101922.72;4895239;29;20028;-79
2022/04/22 05:57:23;;;;;;;2.67;1.50;;;;;;;8.84;84.34;101931.34;4880668;29;20600;-77
2022/04/22 05:59:49;;;;;;;3.85;1.42;;;;;;;8.99;83.55;101934.25;4895276;29;20070;-77
2022/04/22 06:02:15;;;;;;;2.88;1.27;;;;;;;8.97;83.02;101914.78;4880022;29;20037;-77
2022/04/22 06:04:40;;;;;;;1.58;1.10;;;;;;;9.24;82.42;101932.53;4899400;29;20035;-77
2022/04/22 06:07:06;;;;;;;3.00;1.20;;;;;;;9.23;82.14;101928.13;4898637;29;20087;-77
2022/04/22 06:12:15;;;;;;;1.83;1.00;;;;;;;9.52;81.16;101925.03;4895598;29;20494;-77
2022/04/22 06:14:41;;;;;;;2.80;1.20;;;;;;;9.54;80.82;101919.50;4896136;29;20123;-77
2022/04/22 06:17:06;;;;;;;1.50;1.20;;;;;;;9.49;80.41;101903.03;4877945;29;20037;-77
2022/04/22 06:19:31;;;;;;;2.88;1.38;;;;;;;9.78;79.16;101916.84;4897307;29;20455;-77
2022/04/22 06:21:57;;;;;;;3.00;1.20;;;;;;;9.74;79.27;101917.34;4897337;29;20400;-77
2022/04/22 06:24:22;;;;;;;2.95;1.27;;;;;;;9.88;79.29;101911.31;4895116;29;20472;-77
2022/04/22 06:26:48;;;;;;;4.65;1.40;;;;;;;9.87;78.24;101905.09;4897607;29;20060;-78
2022/04/22 06:29:14;;;;;;;3.65;1.33;;;;;;;9.98;77.69;101893.16;4880188;29;20146;-77
2022/04/22 06:31:40;;;;;;;2.53;1.30;;;;;;;9.91;77.14;101878.72;4895712;29;20029;-77
2022/04/22 06:34:06;;;;;;;1.90;1.20;;;;;;;10.16;77.25;101898.34;4896147;29;20477;-77
2022/04/22 06:36:32;;;;;;;1.20;1.00;;;;;;;10.27;76.49;101897.22;4894903;29;20044;-77
2022/04/22 06:38:58;;;;;;;2.55;1.30;;;;;;;10.27;75.95;101895.38;4895286;29;20072;-77
2022/04/22 06:46:56;;;;;;;2.22;1.20;;;;;;;10.47;75.19;101857.31;4894654;29;20165;-78
2022/04/22 06:49:25;;;;;;;3.88;1.25;;;;;;;10.82;75.00;101891.84;4896668;29;20020;-77
2022/04/22 06:51:51;;;;;;;3.20;1.02;;;;;;;10.37;74.62;101810.94;4894712;29;20033;-77
2022/04/22 06:54:18;;;;;;;3.75;1.27;;;;;;;11.00;74.49;101882.69;4896537;29;20107;-76
2022/04/22 06:56:45;;;;;;;2.72;1.20;;;;;;;11.08;74.18;101884.50;4897230;29;20050;-78
2022/04/22 06:59:11;;;;;;;1.70;1.20;;;;;;;11.23;73.97;101891.66;4896379;29;20056;-77
2022/04/22 07:01:36;;;;;;;2.90;1.23;;;;;;;11.45;72.85;101889.16;4905870;29;20107;-76
2022/04/22 07:04:03;;;;;;;3.22;1.10;;;;;;;11.55;72.83;101892.47;4898076;29;20029;-77
2022/04/22 07:06:29;;;;;;;1.77;1.10;;;;;;;11.74;71.57;101891.16;4898352;29;20104;-77
2022/04/22 07:08:54;;;;;;;1.80;1.10;;;;;;;11.88;71.24;101892.25;4880674;29;20454;-78
2022/04/22 07:11:28;;;;;;;2.33;0.93;;;;;;;12.05;69.89;101896.50;4894166;29;20084;-77
2022/04/22 07:13:55;;;;;;;2.42;1.17;;;;;;;12.10;69.88;101891.41;4896182;29;20032;-77
2022/04/22 07:16:21;;;;;;;1.75;1.05;;;;;;;12.14;69.39;101890.00;4898068;29;20041;-77
2022/04/22 07:18:47;;;;;;;1.55;1.13;;;;;;;12.36;68.19;101888.28;4899252;29;20406;-78
2022/04/22 07:21:13;;;;;;;2.55;1.20;;;;;;;12.32;68.41;101883.44;4894508;29;20525;-78
2022/04/22 07:23:39;;;;;;;1.67;0.80;;;;;;;12.37;66.14;101864.81;4878924;29;20040;-77
2022/04/22 07:26:09;;;;;;;3.00;1.05;;;;;;;12.66;65.95;101880.19;4894117;29;20370;-77
2022/04/22 07:28:37;;;;;;;3.35;0.90;;;;;;;12.70;65.02;101879.63;4897350;29;20024;-77
2022/04/22 07:31:03;;;;;;;3.70;1.13;;;;;;;12.63;64.63;101870.59;4892464;29;20032;-77
2022/04/22 07:33:29;;;;;;;3.17;1.23;;;;;;;12.74;64.13;101881.97;4882018;29;20039;-77
2022/04/22 07:35:55;;;;;;;4.22;0.90;;;;;;;12.93;63.51;101876.00;4902660;29;20024;-77
2022/04/22 07:38:21;;;;;;;1.60;0.90;;;;;;;13.03;63.42;101865.72;4904275;29;20371;-78
2022/04/22 07:40:49;;;;;;;2.42;0.85;;;;;;;12.84;61.96;101858.19;4900908;29;20088;-77
2022/04/22 07:48:45;;;;;;;3.10;0.82;;;;;;;13.46;58.02;101856.88;4898348;29;20068;-77
2022/04/22 07:51:10;;;;;;;3.83;1.00;;;;;;;13.45;56.33;101861.44;4880043;29;20032;-77
2022/04/22 07:53:36;;;;;;;3.33;0.95;;;;;;;13.37;55.62;101835.34;4896898;29;20033;-77
2022/04/22 07:56:03;;;;;;;2.53;0.85;;;;;;;13.26;53.76;101854.78;4896674;29;20036;-77
2022/04/22 07:58:30;;;;;;;3.40;1.00;;;;;;;13.24;54.98;101842.47;4897015;29;20036;-77
2022/04/22 08:00:56;;;;;;;4.13;0.88;;;;;;;13.54;54.84;101856.72;4883530;29;20039;-78
2022/04/22 08:03:21;;;;;;;1.23;0.70;;;;;;;13.58;54.33;101850.75;4886851;29;20048;-77
2022/04/22 08:05:46;;;;;;;3.90;0.90;;;;;;;13.79;53.94;101851.78;4883406;29;20037;-77
2022/04/22 08:08:12;;;;;;;2.15;0.80;;;;;;;13.67;53.03;101846.03;4896527;29;20132;-78
2022/04/22 08:10:38;;;;;;;1.83;0.90;;;;;;;13.62;53.01;101838.53;4882504;29;20054;-77
2022/04/22 08:13:05;;;;;;;1.05;0.80;;;;;;;14.05;52.86;101849.28;4885393;29;20028;-76
2022/04/22 08:15:33;;;;;;;3.50;0.80;;;;;;;13.92;52.61;101832.94;4886702;29;20071;-78
2022/04/22 08:17:58;;;;;;;1.33;0.63;;;;;;;13.80;52.15;101839.91;4898133;29;20058;-77
2022/04/22 08:20:24;;;;;;;1.27;0.80;;;;;;;13.63;51.95;101834.78;4900279;29;20431;-77
2022/04/22 08:22:49;;;;;;;1.63;0.90;;;;;;;13.85;51.92;101823.94;4898338;29;20485;-77
2022/04/22 08:25:15;;;;;;;1.48;0.90;;;;;;;14.13;52.32;101840.19;4884684;29;20052;-78
2022/04/22 08:27:40;;;;;;;5.13;1.10;;;;;;;14.07;51.92;101830.13;4897711;29;20029;-78
2022/04/22 08:30:07;;;;;;;3.67;0.80;;;;;;;14.05;50.84;101837.63;4898230;29;20028;-78
2022/04/22 08:32:33;;;;;;;3.25;0.90;;;;;;;14.15;51.41;101812.94;4894852;29;20036;-78
2022/04/22 08:34:58;;;;;;;3.50;0.70;;;;;;;14.18;51.09;101817.94;4899966;29;20105;-77
2022/04/22 08:37:24;;;;;;;0.60;0.60;;;;;;;14.42;50.95;101828.28;4896730;29;20363;-77
2022/04/22 08:39:49;;;;;;;2.08;0.90;;;;;;;14.47;50.35;101841.22;4898831;29;20055;-77
2022/04/22 08:42:15;;;;;;;0.90;0.70;;;;;;;14.27;50.50;101828.44;4898188;29;20036;-77
2022/04/22 08:44:41;;;;;;;2.58;1.08;;;;;;;14.20;50.18;101832.94;4898402;29;20103;-77
2022/04/22 08:50:02;;;;;;;1.52;0.75;;;;;;;14.34;49.90;101817.63;4898675;29;20043;-77
2022/04/22 08:52:34;;;;;;;2.45;0.77;;;;;;;14.48;49.48;101823.97;4898660;29;20033;-77
2022/04/22 08:55:02;;;;;;;1.75;0.63;;;;;;;14.50;49.97;101822.75;4911415;29;20455;-77
2022/04/22 08:57:29;;;;;;;1.65;0.90;;;;;;;14.73;49.38;101838.69;4898575;29;20088;-77
2022/04/22 09:00:07;;;;;;;1.73;0.60;;;;;;;14.79;49.84;101824.34;4897696;29;20653;-77
2022/04/22 09:02:33;;;;;;;1.55;0.70;;;;;;;14.93;49.59;101830.66;4897600;29;20041;-77
2022/04/22 09:04:58;;;;;;;2.88;0.80;;;;;;;14.70;49.14;101803.91;4894735;29;20075;-77
2022/04/22 09:07:28;;;;;;;8.52;1.02;;;;;;;14.86;48.61;101835.19;4904686;29;20039;-77
2022/04/22 09:09:54;;;;;;;2.97;0.90;;;;;;;14.54;48.04;101825.91;4868941;29;20036;-77
2022/04/22 09:12:23;;;;;;;0.95;0.70;;;;;;;14.85;48.43;101806.44;4897983;29;20112;-77
2022/04/22 09:14:51;;;;;;;2.75;0.70;;;;;;;15.11;48.63;101829.25;4895757;29;20047;-77
2022/04/22 09:17:22;;;;;;;5.45;0.68;;;;;;;15.21;48.34;101829.69;4896752;29;20428;-77
2022/04/22 09:19:48;;;;;;;1.65;0.80;;;;;;;15.22;47.06;101813.22;4898295;29;20040;-78
2022/04/22 09:22:24;;;;;;;1.45;0.70;;;;;;;15.09;48.10;101820.47;4898374;29;20041;-77
2022/04/22 09:24:54;;;;;;;1.85;0.82;;;;;;;15.39;47.17;101810.13;4902180;29;20059;-78
2022/04/22 09:27:31;;;;;;;3.38;1.02;;;;;;;15.25;46.41;101793.00;4904689;29;20036;-78
2022/04/22 09:29:57;;;;;;;1.42;0.80;;;;;;;15.37;47.13;101814.94;4898438;29;20340;-79
2022/04/22 09:32:23;;;;;;;2.20;0.70;;;;;;;15.28;46.41;101801.56;4898117;29;20047;-78
2022/04/22 09:34:48;;;;;;;1.63;0.95;;;;;;;15.42;46.67;101802.41;4899205;29;20028;-78
2022/04/22 09:42:50;;;;;;;3.50;0.80;;;;;;;15.44;46.09;101765.06;4899223;29;20046;-78
2022/04/22 09:45:15;;;;;;;1.80;0.82;;;;;;;15.27;43.91;101783.63;4893064;29;20111;-78
2022/04/22 09:47:41;;;;;;;2.95;0.65;;;;;;;15.35;43.98;101793.41;4892145;29;20411;-78
2022/04/22 09:50:11;;;;;;;4.03;1.05;;;;;;;15.41;44.67;101775.50;4893562;29;20116;-77
2022/04/22 09:52:44;;;;;;;1.38;0.80;;;;;;;15.66;44.91;101794.69;4893332;29;20033;-79
2022/04/22 09:55:16;;;;;;;1.85;0.60;;;;;;;15.85;43.79;101795.78;4898781;29;20123;-78
2022/04/22 09:57:56;;;;;;;3.60;0.65;;;;;;;15.84;43.85;101788.69;4897403;29;20032;-77
2022/04/22 10:00:24;;;;;;;2.88;0.80;;;;;;;15.85;43.02;101779.47;4891870;29;20028;-77
2022/04/22 10:02:51;;;;;;;2.65;0.70;;;;;;;16.12;42.76;101778.38;4896390;29;20075;-78
2022/04/22 10:05:21;;;;;;;1.25;0.60;;;;;;;16.22;42.29;101769.81;4903769;29;20052;-78
2022/04/22 10:07:57;;;;;;;2.88;0.73;;;;;;;16.17;42.04;101747.91;4900302;29;20554;-78
2022/04/22 10:10:30;;;;;;;3.25;0.90;;;;;;;16.10;42.50;101755.25;4896915;29;20036;-77
2022/04/22 10:12:59;;;;;;;3.10;0.70;;;;;;;16.20;42.84;101766.50;4898389;29;20447;-77
2022/04/22 10:15:32;;;;;;;3.00;0.65;;;;;;;16.32;41.77;101748.47;4895574;29;20068;-77
2022/04/22 10:17:57;;;;;;;0.98;0.70;;;;;;;16.15;41.46;101747.28;4896973;29;20100;-78
2022/04/22 10:20:26;;;;;;;1.05;0.75;;;;;;;16.15;41.09;101730.97;4882251;29;20036;-78
2022/04/22 10:22:52;;;;;;;2.40;0.60;;;;;;;16.01;40.97;101751.91;4880143;29;20044;-78
2022/04/22 10:25:19;;;;;;;1.52;0.60;;;;;;;16.46;39.99;101752.00;4883395;29;20036;-78
2022/04/22 10:27:46;;;;;;;2.67;0.77;;;;;;;16.34;38.02;101748.25;4897187;29;20036;-78
2022/04/22 10:30:15;;;;;;;3.30;0.70;;;;;;;16.27;38.41;101740.13;4897542;29;20033;-78
2022/04/22 10:32:45;;;;;;;1.30;0.60;;;;;;;16.33;37.83;101760.19;4897992;29;20367;-78
2022/04/22 10:35:13;;;;;;;1.52;0.70;;;;;;;16.46;38.04;101757.44;4898013;29;20032;-78
2022/04/22 10:37:38;;;;;;;2.90;0.77;;;;;;;16.65;38.04;101758.38;4902863;29;20099;-77
2022/04/22 10:40:05;;;;;;;2.25;0.65;;;;;;;16.74;38.29;101737.22;4885877;29;20044;-78
2022/04/22 10:42:35;;;;;;;1.50;0.65;;;;;;;16.73;37.86;101758.13;4880587;29;20452;-78
2022/04/22 10:47:53;;;;;;;0.93;0.60;;;;;;;16.85;36.83;101726.53;4899547;29;20553;-77
2022/04/22 10:50:33;;;;;;;3.92;0.68;;;;;;;16.46;37.44;101716.69;4899377;29;20029;-78
2022/04/22 10:53:09;;;;;;;1.00;0.60;;;;;;;16.86;37.74;101736.34;4897473;29;20063;-78
2022/04/22 10:55:44;;;;;;;0.70;0.50;;;;;;;16.87;37.77;101715.44;4897538;29;20096;-78
2022/04/22 10:58:12;;;;;;;1.52;0.60;;;;;;;16.85;38.17;101736.56;4896241;29;20518;-78
2022/04/22 11:00:40;;;;;;;2.05;0.70;;;;;;;16.92;38.11;101731.94;4897016;29;20467;-78
2022/04/22 11:03:15;;;;;;;1.65;0.65;;;;;;;17.24;38.07;101740.91;4897395;29;20096;-77
2022/04/22 11:05:51;;;;;;;1.95;0.60;;;;;;;16.96;38.06;101705.97;4894446;29;20020;-78
2022/04/22 11:08:26;;;;;;;1.10;0.60;;;;;;;16.93;37.56;101722.72;4909299;29;20060;-78
2022/04/22 11:10:52;;;;;;;4.20;0.70;;;;;;;16.84;36.89;101740.34;4897708;29;20068;-79
2022/04/22 11:13:41;;;;;;;1.98;0.60;;;;;;;16.93;36.61;101741.75;4897982;29;20486;-78
2022/04/22 11:16:30;;;;;;;2.00;0.70;;;;;;;17.07;36.07;101735.16;4897219;29;20048;-79
2022/04/22 11:19:17;;;;;;;1.80;0.60;;;;;;;16.78;36.32;101727.59;4896033;29;20396;-79
2022/04/22 11:21:45;;;;;;;0.90;0.63;;;;;;;16.92;36.98;101729.22;4897384;29;20466;-79
2022/04/22 11:24:26;;;;;;;2.00;0.60;;;;;;;16.99;35.80;101726.47;4895513;29;20033;-79
2022/04/22 11:26:53;;;;;;;2.45;0.60;;;;;;;17.13;36.17;101701.66;4897876;29;20380;-78
2022/04/22 11:29:19;;;;;;;3.33;0.70;;;;;;;17.02;35.65;101699.66;4911693;29;20360;-77
2022/04/22 11:32:05;;;;;;;1.88;0.75;;;;;;;17.16;35.56;101711.25;4894416;29;20025;-78
2022/04/22 11:35:11;;;;;;;2.78;0.63;;;;;;;17.34;34.51;101707.75;4916284;29;20126;-79
2022/04/22 11:37:37;;;;;;;1.40;0.70;;;;;;;17.11;35.84;101700.19;4898116;29;20358;-79
2022/04/22 11:40:08;;;;;;;2.00;0.80;;;;;;;17.26;35.08;101700.72;4897290;29;20123;-79
2022/04/22 11:42:43;;;;;;;1.95;0.82;;;;;;;17.47;35.12;101682.34;4895693;29;20483;-78
2022/04/22 11:45:14;;;;;;;1.52;0.70;;;;;;;17.32;35.43;101694.41;4897935;29;20028;-79
2022/04/22 11:47:40;;;;;;;2.15;0.70;;;;;;;17.48;36.09;101694.88;4902562;29;20051;-80
2022/04/22 11:50:06;;;;;;;1.00;0.70;;;;;;;17.22;35.69;101685.91;4903663;29;20054;-78
2022/04/22 11:52:32;;;;;;;3.28;0.70;;;;;;;17.30;36.16;101725.59;4913515;29;20111;-78
2022/04/22 11:55:03;;;;;;;1.27;0.77;;;;;;;17.34;35.45;101692.28;4898092;29;20025;-78
2022/04/22 11:57:33;;;;;;;1.67;0.50;;;;;;;17.55;35.81;101703.84;4898154;29;20447;-78
2022/04/22 12:05:32;;;;;;;3.35;0.70;;;;;;;17.47;36.22;101702.22;4896904;29;20562;-78
2022/04/22 12:08:07;;;;;;;2.67;0.80;;;;;;;17.46;36.00;101661.63;4898410;29;20029;-79
2022/04/22 12:10:33;;;;;;;1.02;0.80;;;;;;;17.80;36.13;101685.59;4897743;29;20041;-79
2022/04/22 12:13:03;;;;;;;2.25;0.70;;;;;;;17.79;35.96;101640.38;4881227;29;20127;-78
2022/04/22 12:15:31;;;;;;;1.38;0.60;;;;;;;17.89;35.88;101688.03;4896436;29;20040;-78
2022/04/22 12:17:59;;;;;;;1.30;0.85;;;;;;;18.00;35.57;101674.47;4897917;29;20041;-79
2022/04/22 12:20:28;;;;;;;2.75;0.80;;;;;;;17.92;35.61;101680.22;4896745;29;20067;-78
2022/04/22 12:22:55;;;;;;;1.55;0.88;;;;;;;17.94;35.87;101680.00;4884424;29;20037;-79
2022/04/22 12:25:23;;;;;;;4.10;0.95;;;;;;;17.73;35.72;101673.91;4906269;29;20033;-79
2022/04/22 12:28:11;;;;;;;2.58;1.20;;;;;;;17.80;36.37;101673.88;4903803;29;21226;-79